createdAt,value
2022-09-17T00:01:38.113Z,2.10
2022-09-17T00:04:05.449Z,1.92
2022-09-17T00:06:33.436Z,1.80
2022-09-17T00:09:00.563Z,2.03
2022-09-17T00:11:29.071Z,1.70
2022-09-17T00:13:56.792Z,1.98
2022-09-17T00:16:26.990Z,2.00
2022-09-17T00:18:54.598Z,1.67
2022-09-17T00:21:22.388Z,1.80
2022-09-17T00:23:49.727Z,1.70
2022-09-17T00:26:16.817Z,1.73
2022-09-17T00:28:48.274Z,1.52
2022-09-17T00:31:15.430Z,1.50
2022-09-17T00:33:42.510Z,2.05
2022-09-17T00:36:09.811Z,1.75
2022-09-17T00:38:36.894Z,1.67
2022-09-17T00:41:04.344Z,1.42
2022-09-17T00:43:42.678Z,1.73
2022-09-17T00:46:33.047Z,1.67
2022-09-17T00:49:02.223Z,1.75
2022-09-17T00:51:37.854Z,2.05
2022-09-17T00:54:06.832Z,1.63
2022-09-17T00:56:35.786Z,1.40
2022-09-17T00:59:03.674Z,1.50
2022-09-17T01:01:31.315Z,1.48
2022-09-17T01:03:58.722Z,1.92
2022-09-17T01:06:51.056Z,1.60
2022-09-17T01:09:21.308Z,1.90
2022-09-17T01:12:06.941Z,1.52
2022-09-17T01:14:46.276Z,1.50
2022-09-17T01:17:32.093Z,1.75
2022-09-17T01:19:59.111Z,1.60
2022-09-17T01:22:32.084Z,1.67
2022-09-17T01:25:17.777Z,1.63
2022-09-17T01:27:58.008Z,2.00
2022-09-17T01:30:42.514Z,2.20
2022-09-17T01:33:15.667Z,2.33
2022-09-17T01:35:48.542Z,1.75
2022-09-17T01:38:18.843Z,2.10
2022-09-17T01:40:53.092Z,2.28
2022-09-17T01:43:24.807Z,2.25
2022-09-17T01:45:53.255Z,2.35
2022-09-17T01:48:21.243Z,2.20
2022-09-17T01:50:53.956Z,2.35
2022-09-17T01:53:24.488Z,1.92
2022-09-17T01:55:53.439Z,2.33
2022-09-17T01:58:32.457Z,2.40
2022-09-17T02:01:03.708Z,2.40
2022-09-17T02:03:45.687Z,2.15
2022-09-17T02:06:22.419Z,2.15
2022-09-17T02:08:52.754Z,1.85
2022-09-17T02:11:20.314Z,2.40
2022-09-17T02:13:59.912Z,2.30
2022-09-17T02:16:28.426Z,2.10
2022-09-17T02:19:07.960Z,2.40
2022-09-17T02:21:53.558Z,2.50
2022-09-17T02:24:24.309Z,2.60
2022-09-17T02:27:00.280Z,3.40
2022-09-17T02:29:34.888Z,2.40
2022-09-17T02:32:02.114Z,2.17
2022-09-17T02:34:29.461Z,2.30
2022-09-17T02:36:58.654Z,1.77
2022-09-17T02:39:26.161Z,1.85
2022-09-17T02:41:56.331Z,2.20
2022-09-17T02:44:28.826Z,2.42
2022-09-17T02:47:13.286Z,2.05
2022-09-17T02:49:50.081Z,2.20
2022-09-17T02:52:26.321Z,2.22
2022-09-17T02:55:01.857Z,2.13
2022-09-17T02:57:38.905Z,2.35
2022-09-17T03:00:13.539Z,2.72
2022-09-17T03:02:43.635Z,2.70
2022-09-17T03:05:11.450Z,2.47
2022-09-17T03:07:38.673Z,2.35
2022-09-17T03:10:06.118Z,2.60
2022-09-17T03:12:33.289Z,2.70
2022-09-17T03:15:00.785Z,2.90
2022-09-17T03:17:28.151Z,2.65
2022-09-17T03:19:55.250Z,2.63
2022-09-17T03:22:22.353Z,2.63
2022-09-17T03:24:49.440Z,2.70
2022-09-17T03:27:16.603Z,2.55
2022-09-17T03:29:43.929Z,2.75
2022-09-17T03:32:11.130Z,2.50
2022-09-17T03:34:38.246Z,2.10
2022-09-17T03:37:05.423Z,2.50
2022-09-17T03:39:32.503Z,2.83
2022-09-17T03:41:59.591Z,2.40
2022-09-17T03:44:26.708Z,2.33
2022-09-17T03:46:53.786Z,2.45
2022-09-17T03:49:20.860Z,2.85
2022-09-17T03:51:47.960Z,2.55
2022-09-17T03:54:15.037Z,2.53
2022-09-17T03:56:42.107Z,2.47
2022-09-17T03:59:09.433Z,2.33
2022-09-17T04:01:36.753Z,2.15
2022-09-17T04:04:04.467Z,2.58
2022-09-17T04:06:31.576Z,2.13
2022-09-17T04:09:00.858Z,2.38
2022-09-17T04:11:28.110Z,2.40
2022-09-17T04:13:55.275Z,2.55
2022-09-17T04:16:22.429Z,2.85
2022-09-17T04:18:49.795Z,2.85
2022-09-17T04:21:16.859Z,2.75
2022-09-17T04:23:43.935Z,2.42
2022-09-17T04:26:11.279Z,2.78
2022-09-17T04:28:38.514Z,2.95
2022-09-17T04:31:05.693Z,2.55
2022-09-17T04:33:32.805Z,3.17
2022-09-17T04:35:59.878Z,3.10
2022-09-17T04:38:26.976Z,2.90
2022-09-17T04:40:57.196Z,2.83
2022-09-17T04:43:24.549Z,2.92
2022-09-17T04:45:51.601Z,3.20
2022-09-17T04:48:18.735Z,2.45
2022-09-17T04:50:45.894Z,2.88
2022-09-17T04:53:13.178Z,2.75
2022-09-17T04:55:40.419Z,2.90
2022-09-17T04:58:07.488Z,2.72
2022-09-17T05:00:35.481Z,2.70
2022-09-17T05:03:02.834Z,2.30
2022-09-17T05:05:30.025Z,2.65
2022-09-17T05:07:57.111Z,2.97
2022-09-17T05:10:24.257Z,3.20
2022-09-17T05:12:52.245Z,2.78
2022-09-17T05:15:19.679Z,2.88
2022-09-17T05:17:47.370Z,2.83
2022-09-17T05:20:15.291Z,2.50
2022-09-17T05:22:46.306Z,3.10
2022-09-17T05:25:13.809Z,2.72
2022-09-17T05:27:41.098Z,3.20
2022-09-17T05:30:08.766Z,3.20
2022-09-17T05:32:36.699Z,3.20
2022-09-17T05:35:05.739Z,3.25
2022-09-17T05:37:33.238Z,3.17
2022-09-17T05:40:00.419Z,3.85
2022-09-17T05:42:27.870Z,3.00
2022-09-17T05:44:54.922Z,3.55
2022-09-17T05:47:22.001Z,3.28
2022-09-17T05:49:49.161Z,3.28
2022-09-17T05:52:16.289Z,3.63
2022-09-17T05:54:43.450Z,3.47
2022-09-17T05:57:10.534Z,3.63
2022-09-17T05:59:37.656Z,3.17
2022-09-17T06:02:05.688Z,4.28
2022-09-17T06:04:34.886Z,3.78
2022-09-17T06:07:05.035Z,3.85
2022-09-17T06:09:32.113Z,4.07
2022-09-17T06:11:59.169Z,3.70
2022-09-17T06:14:26.266Z,6.97
2022-09-17T06:16:53.458Z,6.72
2022-09-17T06:19:20.570Z,3.75
2022-09-17T06:21:47.758Z,2.88
2022-09-17T06:24:14.840Z,3.50
2022-09-17T06:26:41.961Z,2.85
2022-09-17T06:29:09.093Z,3.25
2022-09-17T06:31:36.174Z,3.22
2022-09-17T06:34:05.548Z,3.53
2022-09-17T06:36:32.592Z,3.45
2022-09-17T06:38:59.712Z,2.97
2022-09-17T06:41:27.033Z,3.05
2022-09-17T06:43:54.568Z,3.40
2022-09-17T06:46:21.894Z,3.35
2022-09-17T06:48:49.080Z,3.17
2022-09-17T06:51:16.145Z,3.28
2022-09-17T06:53:43.343Z,3.53
2022-09-17T06:56:10.967Z,3.10
2022-09-17T06:58:38.360Z,3.13
2022-09-17T07:01:05.954Z,3.65
2022-09-17T07:03:33.171Z,3.10
2022-09-17T07:06:00.265Z,3.15
2022-09-17T07:08:27.354Z,3.60
2022-09-17T07:10:57.714Z,3.47
2022-09-17T07:13:25.517Z,4.25
2022-09-17T07:15:53.339Z,3.83
2022-09-17T07:18:20.714Z,3.83
2022-09-17T07:20:54.019Z,3.65
2022-09-17T07:23:21.291Z,4.05
2022-09-17T07:25:52.419Z,3.50
2022-09-17T07:28:19.905Z,3.60
2022-09-17T07:30:47.135Z,3.95
2022-09-17T07:33:14.286Z,4.03
2022-09-17T07:35:41.334Z,3.85
2022-09-17T07:38:08.408Z,3.85
2022-09-17T07:40:35.620Z,3.15
2022-09-17T07:43:02.723Z,3.03
2022-09-17T07:45:29.771Z,2.88
2022-09-17T07:47:56.858Z,3.08
2022-09-17T07:50:23.930Z,3.47
2022-09-17T07:52:51.007Z,3.25
2022-09-17T07:55:18.118Z,3.28
2022-09-17T07:57:51.112Z,3.85
2022-09-17T08:00:18.191Z,3.30
2022-09-17T08:02:45.365Z,2.97
2022-09-17T08:05:12.601Z,3.40
2022-09-17T08:07:40.127Z,3.22
2022-09-17T08:10:07.319Z,4.10
2022-09-17T08:12:34.437Z,3.88
2022-09-17T08:15:01.646Z,4.40
2022-09-17T08:17:28.687Z,4.50
2022-09-17T08:19:55.760Z,5.40
2022-09-17T08:22:22.823Z,4.68
2022-09-17T08:24:49.910Z,4.72
2022-09-17T08:27:17.046Z,4.78
2022-09-17T08:29:44.113Z,5.03
2022-09-17T08:32:12.019Z,4.40
2022-09-17T08:34:39.117Z,4.60
2022-09-17T08:37:06.204Z,5.10
2022-09-17T08:39:33.326Z,5.70
2022-09-17T08:42:09.508Z,6.03
2022-09-17T08:44:43.659Z,5.53
2022-09-17T08:47:13.582Z,5.30
2022-09-17T08:49:51.951Z,4.75
2022-09-17T08:52:37.921Z,6.00
2022-09-17T08:55:23.923Z,6.25
2022-09-17T08:58:09.934Z,6.80
2022-09-17T09:00:47.839Z,6.93
2022-09-17T09:03:14.901Z,5.85
2022-09-17T09:05:41.954Z,7.13
2022-09-17T09:08:38.734Z,6.20
2022-09-17T09:11:07.440Z,6.13
2022-09-17T09:13:53.058Z,6.10
2022-09-17T09:16:22.338Z,6.47
2022-09-17T09:18:52.106Z,5.82
2022-09-17T09:21:27.516Z,6.70
2022-09-17T09:24:01.369Z,6.28
2022-09-17T09:26:44.885Z,6.55
2022-09-17T09:29:30.747Z,5.82
2022-09-17T09:31:57.885Z,5.82
2022-09-17T09:34:26.545Z,5.07
2022-09-17T09:36:55.335Z,5.22
2022-09-17T09:39:24.866Z,5.50
2022-09-17T09:41:58.789Z,5.30
2022-09-17T09:44:26.045Z,4.85
2022-09-17T09:47:02.177Z,4.60
2022-09-17T09:49:45.049Z,4.40
2022-09-17T09:52:12.094Z,3.65
2022-09-17T09:54:51.347Z,4.20
2022-09-17T09:57:19.640Z,3.97
2022-09-17T09:59:46.834Z,3.58
2022-09-17T10:02:14.725Z,3.40
2022-09-17T10:04:41.914Z,4.32
2022-09-17T10:07:10.265Z,3.15
2022-09-17T10:09:38.877Z,3.83
2022-09-17T10:12:05.987Z,3.75
2022-09-17T10:14:34.866Z,3.50
2022-09-17T10:17:20.952Z,3.13
2022-09-17T10:20:00.366Z,4.28
2022-09-17T10:22:32.420Z,3.83
2022-09-17T10:25:00.672Z,3.63
2022-09-17T10:27:28.399Z,3.90
2022-09-17T10:30:15.267Z,4.28
2022-09-17T10:32:42.568Z,4.35
2022-09-17T10:35:15.773Z,3.45
2022-09-17T10:37:52.841Z,3.33
2022-09-17T10:40:20.072Z,2.70
2022-09-17T10:42:47.858Z,2.60
2022-09-17T10:45:31.140Z,2.30
2022-09-17T10:48:00.188Z,2.40
2022-09-17T10:50:29.486Z,1.67
2022-09-17T10:53:02.435Z,1.98
2022-09-17T10:55:34.199Z,2.45
2022-09-17T10:58:01.253Z,2.30
2022-09-17T11:00:30.634Z,2.40
2022-09-17T11:03:09.138Z,1.80
2022-09-17T11:05:54.665Z,2.20
2022-09-17T11:08:26.434Z,2.28
2022-09-17T11:10:59.471Z,1.77
2022-09-17T11:13:38.343Z,2.80
2022-09-17T11:16:13.829Z,2.63
2022-09-17T11:18:52.978Z,2.33
2022-09-17T11:21:29.168Z,2.67
2022-09-17T11:24:08.194Z,2.58
2022-09-17T11:26:38.022Z,3.00
2022-09-17T11:29:05.060Z,2.53
2022-09-17T11:31:38.687Z,3.10
2022-09-17T11:34:20.681Z,2.67
2022-09-17T11:37:00.894Z,3.42
2022-09-17T11:39:35.208Z,4.05
2022-09-17T11:42:04.115Z,2.78
2022-09-17T11:44:33.424Z,1.40
2022-09-17T11:47:13.474Z,1.73
2022-09-17T11:49:46.921Z,1.50
2022-09-17T11:52:33.200Z,0.82
2022-09-17T11:55:19.090Z,0.63
2022-09-17T11:57:46.953Z,0.68
2022-09-17T12:00:15.875Z,0.65
2022-09-17T12:02:49.527Z,0.57
2022-09-17T12:05:34.914Z,0.60
2022-09-17T12:08:04.741Z,0.63
2022-09-17T12:10:46.974Z,0.52
2022-09-17T12:13:18.028Z,1.27
2022-09-17T12:15:52.327Z,1.20
2022-09-17T12:18:31.681Z,1.30
2022-09-17T12:21:01.340Z,0.80
2022-09-17T12:23:35.359Z,1.20
2022-09-17T12:26:10.154Z,1.20
2022-09-17T12:28:54.294Z,1.42
2022-09-17T12:31:26.189Z,1.42
2022-09-17T12:33:58.339Z,1.20
2022-09-17T12:36:28.401Z,1.67
2022-09-17T12:39:04.533Z,1.70
2022-09-17T12:41:41.303Z,1.90
2022-09-17T12:44:17.539Z,1.95
2022-09-17T12:47:03.199Z,1.20
2022-09-17T12:49:48.719Z,1.40
2022-09-17T12:52:34.309Z,1.95
2022-09-17T12:55:27.794Z,1.40
2022-09-17T12:57:57.980Z,1.30
2022-09-17T13:00:25.373Z,1.73
2022-09-17T13:02:59.588Z,1.67
2022-09-17T13:05:32.790Z,1.90
2022-09-17T13:08:39.999Z,1.50
2022-09-17T13:11:14.836Z,1.42
2022-09-17T13:13:47.827Z,1.55
2022-09-17T13:16:19.970Z,1.60
2022-09-17T13:21:36.868Z,2.80
2022-09-17T13:24:15.022Z,2.65
2022-09-17T13:26:42.202Z,1.90
2022-09-17T13:29:10.356Z,1.73
2022-09-17T13:31:42.078Z,1.60
2022-09-17T13:34:18.204Z,1.73
2022-09-17T13:36:52.970Z,2.83
2022-09-17T13:39:40.138Z,1.52
2022-09-17T13:42:21.191Z,3.10
2022-09-17T13:45:03.212Z,3.00
2022-09-17T13:47:37.647Z,2.47
2022-09-17T13:50:09.848Z,2.13
2022-09-17T13:52:39.538Z,2.88
2022-09-17T13:55:07.160Z,2.35
2022-09-17T13:57:47.313Z,1.50
2022-09-17T14:00:33.251Z,1.50
2022-09-17T14:03:20.350Z,1.58
2022-09-17T14:05:47.743Z,1.02
2022-09-17T14:08:27.779Z,1.23
2022-09-17T14:10:55.399Z,0.90
2022-09-17T14:13:26.311Z,1.05
2022-09-17T14:16:01.868Z,1.02
2022-09-17T14:18:28.974Z,1.02
2022-09-17T14:21:08.091Z,0.82
2022-09-17T14:23:36.003Z,1.10
2022-09-17T14:26:06.097Z,1.45
2022-09-17T14:28:40.374Z,2.05
2022-09-17T14:31:13.081Z,1.10
2022-09-17T14:36:11.222Z,1.20
2022-09-17T14:38:44.662Z,1.20
2022-09-17T14:41:11.738Z,1.30
2022-09-17T14:43:44.770Z,1.15
2022-09-17T14:46:19.545Z,1.70
2022-09-17T14:48:46.650Z,1.20
2022-09-17T14:51:22.255Z,1.30
2022-09-17T14:53:50.281Z,1.10
2022-09-17T14:56:19.993Z,1.33
2022-09-17T14:58:48.766Z,1.58
2022-09-17T15:01:29.454Z,1.23
2022-09-17T15:04:14.644Z,1.27
2022-09-17T15:06:42.530Z,0.90
2022-09-17T15:09:16.116Z,1.20
2022-09-17T15:11:44.507Z,2.08
2022-09-17T15:14:22.160Z,1.35
2022-09-17T15:16:50.395Z,1.10
2022-09-17T15:19:31.128Z,1.20
2022-09-17T15:21:58.686Z,1.30
2022-09-17T15:24:40.954Z,0.98
2022-09-17T15:27:14.402Z,1.02
2022-09-17T15:29:44.760Z,1.15
2022-09-17T15:32:15.494Z,1.25
2022-09-17T15:34:42.719Z,1.10
2022-09-17T15:37:15.780Z,1.20
2022-09-17T15:39:45.793Z,1.63
2022-09-17T15:42:39.510Z,1.15
2022-09-17T15:45:19.509Z,1.42
2022-09-17T15:47:49.773Z,1.40
2022-09-17T15:50:21.228Z,1.80
2022-09-17T15:52:48.333Z,1.23
2022-09-17T15:55:31.751Z,1.30
2022-09-17T15:58:03.053Z,1.40
2022-09-17T16:00:31.378Z,1.63
2022-09-17T16:02:58.740Z,2.05
2022-09-17T16:05:25.833Z,1.27
2022-09-17T16:07:53.147Z,1.30
2022-09-17T16:10:20.327Z,1.40
2022-09-17T16:12:50.184Z,1.40
2022-09-17T16:15:17.502Z,1.30
2022-09-17T16:17:45.733Z,1.40
2022-09-17T16:20:15.994Z,1.80
2022-09-17T16:22:43.701Z,1.73
2022-09-17T16:25:11.218Z,2.38
2022-09-17T16:27:45.947Z,11.15
2022-09-17T16:30:15.191Z,2.90
2022-09-17T16:32:42.433Z,2.10
2022-09-17T16:35:16.977Z,1.88
2022-09-17T16:37:44.529Z,1.70
2022-09-17T16:40:12.795Z,1.63
2022-09-17T16:42:40.323Z,1.60
2022-09-17T16:45:09.015Z,1.67
2022-09-17T16:47:37.245Z,1.70
2022-09-17T16:50:08.210Z,1.73
2022-09-17T16:52:35.844Z,2.13
2022-09-17T16:55:03.271Z,1.80
2022-09-17T16:57:31.351Z,1.73
2022-09-17T16:59:58.827Z,2.33
2022-09-17T17:02:25.973Z,1.80
2022-09-17T17:04:54.222Z,2.30
2022-09-17T17:07:21.374Z,1.75
2022-09-17T17:09:48.482Z,1.20
2022-09-17T17:12:15.578Z,1.98
2022-09-17T17:14:44.417Z,1.98
2022-09-17T17:17:11.512Z,1.65
2022-09-17T17:19:38.880Z,3.30
2022-09-17T17:22:06.846Z,1.77
2022-09-17T17:24:33.949Z,2.45
2022-09-17T17:27:01.643Z,2.90
2022-09-17T17:29:28.726Z,1.92
2022-09-17T17:31:55.780Z,2.05
2022-09-17T17:34:22.905Z,1.90
2022-09-17T17:36:50.615Z,1.70
2022-09-17T17:39:18.066Z,1.50
2022-09-17T17:41:49.674Z,2.20
2022-09-17T17:44:18.683Z,1.40
2022-09-17T17:46:45.768Z,2.30
2022-09-17T17:49:12.879Z,3.10
2022-09-17T17:51:39.988Z,1.60
2022-09-17T17:54:07.045Z,3.40
2022-09-17T17:56:34.159Z,2.22
2022-09-17T17:59:01.781Z,1.60
2022-09-17T18:01:30.620Z,1.50
2022-09-17T18:04:01.270Z,1.20
2022-09-17T18:06:28.973Z,1.63
2022-09-17T18:08:56.118Z,0.93
2022-09-17T18:11:23.733Z,1.00
2022-09-17T18:13:54.734Z,1.55
2022-09-17T18:16:23.342Z,1.40
2022-09-17T18:18:50.857Z,1.48
2022-09-17T18:21:19.268Z,1.73
2022-09-17T18:23:46.789Z,1.45
2022-09-17T18:26:32.578Z,1.50
2022-09-17T18:29:01.436Z,2.17
2022-09-17T18:31:32.751Z,1.75
2022-09-17T18:34:02.023Z,2.08
2022-09-17T18:36:30.315Z,2.35
2022-09-17T18:39:11.045Z,2.42
2022-09-17T18:41:48.789Z,2.97
2022-09-17T18:44:15.964Z,2.60
2022-09-17T18:46:43.168Z,2.72
2022-09-17T18:49:10.584Z,2.90
2022-09-17T18:51:38.374Z,2.50
2022-09-17T18:54:06.252Z,2.35
2022-09-17T18:56:33.447Z,2.50
2022-09-17T18:59:05.659Z,2.75
2022-09-17T19:01:35.450Z,2.70
2022-09-17T19:04:03.187Z,2.92
2022-09-17T19:06:32.202Z,4.88
2022-09-17T19:09:00.446Z,3.90
2022-09-17T19:11:27.826Z,5.22
2022-09-17T19:13:55.292Z,5.03
2022-09-17T19:16:22.671Z,3.75
2022-09-17T19:18:50.098Z,4.15
2022-09-17T19:21:18.943Z,4.60
2022-09-17T19:23:47.116Z,4.40
2022-09-17T19:26:18.555Z,3.22
2022-09-17T19:28:45.746Z,3.45
2022-09-17T19:31:14.232Z,4.28
2022-09-17T19:33:41.420Z,3.72
2022-09-17T19:36:11.109Z,3.13
2022-09-17T19:38:38.720Z,2.88
2022-09-17T19:41:07.221Z,3.08
2022-09-17T19:43:34.484Z,3.28
2022-09-17T19:46:09.169Z,10.30
2022-09-17T19:48:36.453Z,3.85
2022-09-17T19:51:04.373Z,3.63
2022-09-17T19:53:32.805Z,3.05
2022-09-17T19:56:03.281Z,3.33
2022-09-17T19:58:30.380Z,3.60
2022-09-17T20:00:58.065Z,3.35
2022-09-17T20:03:25.717Z,3.20
2022-09-17T20:06:20.564Z,3.22
2022-09-17T20:08:48.268Z,2.50
2022-09-17T20:11:16.178Z,2.72
2022-09-17T20:13:43.307Z,2.85
2022-09-17T20:16:14.996Z,2.33
2022-09-17T20:18:43.814Z,2.10
2022-09-17T20:21:15.527Z,2.00
2022-09-17T20:23:42.649Z,2.20
2022-09-17T20:26:10.186Z,2.03
2022-09-17T20:28:37.278Z,2.10
2022-09-17T20:31:05.390Z,1.70
2022-09-17T20:33:32.614Z,1.90
2022-09-17T20:36:04.449Z,3.13
2022-09-17T20:41:19.258Z,1.55
2022-09-17T20:43:47.442Z,3.55
2022-09-17T20:46:14.968Z,1.75
2022-09-17T20:48:42.467Z,1.55
2022-09-17T20:51:14.277Z,1.88
2022-09-17T20:53:42.133Z,1.95
2022-09-17T20:56:29.506Z,1.63
2022-09-17T20:59:13.249Z,1.38
2022-09-17T21:01:40.856Z,1.70
2022-09-17T21:04:08.993Z,1.40
2022-09-17T21:06:37.691Z,1.50
2022-09-17T21:09:10.341Z,1.30
2022-09-17T21:11:37.466Z,1.30
2022-09-17T21:14:04.985Z,1.40
2022-09-17T21:16:32.218Z,1.10
2022-09-17T21:19:01.449Z,1.33
2022-09-17T21:21:28.865Z,1.65
2022-09-17T21:23:56.051Z,1.95
2022-09-17T21:26:24.905Z,3.17
2022-09-17T21:28:52.826Z,2.47
2022-09-17T21:31:28.414Z,2.40
2022-09-17T21:34:00.397Z,3.20
2022-09-17T21:36:28.771Z,1.48
2022-09-17T21:38:56.854Z,1.90
2022-09-17T21:41:24.798Z,1.50
2022-09-17T21:43:52.279Z,2.40
2022-09-17T21:46:21.448Z,2.00
2022-09-17T21:48:48.638Z,1.45
2022-09-17T21:51:17.492Z,1.60
2022-09-17T21:53:44.851Z,1.98
2022-09-17T21:56:13.525Z,1.80
2022-09-17T21:58:41.175Z,1.67
2022-09-17T22:01:13.383Z,2.00
2022-09-17T22:03:40.608Z,1.70
2022-09-17T22:06:09.066Z,1.60
2022-09-17T22:08:36.287Z,2.33
2022-09-17T22:11:07.333Z,1.70
2022-09-17T22:13:34.903Z,1.75
2022-09-17T22:16:06.058Z,2.28
2022-09-17T22:18:33.893Z,2.03
2022-09-17T22:21:01.379Z,2.88
2022-09-17T22:23:28.673Z,2.10
2022-09-17T22:26:02.683Z,2.80
2022-09-17T22:28:29.779Z,2.08
2022-09-17T22:30:57.105Z,2.88
2022-09-17T22:33:26.591Z,2.90
2022-09-17T22:35:54.411Z,2.60
2022-09-17T22:38:21.670Z,3.15
2022-09-17T22:40:48.806Z,3.95
2022-09-17T22:43:15.924Z,3.35
2022-09-17T22:45:43.020Z,3.60
2022-09-17T22:48:10.083Z,3.40
2022-09-17T22:50:37.149Z,3.55
2022-09-17T22:53:04.240Z,3.60
2022-09-17T22:55:31.490Z,3.88
2022-09-17T22:57:58.550Z,3.65
2022-09-17T23:00:25.633Z,3.67
2022-09-17T23:02:52.755Z,3.70
2022-09-17T23:05:19.862Z,3.30
2022-09-17T23:07:46.935Z,3.55
2022-09-17T23:10:14.011Z,3.65
2022-09-17T23:12:41.155Z,3.28
2022-09-17T23:15:08.473Z,3.03
2022-09-17T23:17:35.842Z,3.55
2022-09-17T23:20:03.685Z,3.05
2022-09-17T23:22:31.330Z,3.38
2022-09-17T23:24:58.495Z,2.88
2022-09-17T23:27:25.672Z,3.00
2022-09-17T23:29:55.591Z,2.83
2022-09-17T23:32:22.684Z,2.70
2022-09-17T23:34:49.749Z,3.00
2022-09-17T23:37:19.287Z,2.65
2022-09-17T23:39:46.601Z,2.72
2022-09-17T23:42:13.694Z,2.38
2022-09-17T23:44:40.854Z,2.40
2022-09-17T23:47:07.951Z,3.17
2022-09-17T23:49:35.060Z,2.47
2022-09-17T23:52:02.253Z,3.15
2022-09-17T23:54:29.349Z,2.22
2022-09-17T23:56:56.400Z,2.80
2022-09-17T23:59:23.514Z,3.30
